sensor_id;sensor_type;location;lat;lon;timestamp;temperature;humidity
13472;DHT22;6808;49.444;11.034;2023-05-10T00:00:12;16.90;99.90
13472;DHT22;6808;49.444;11.034;2023-05-10T00:02:38;16.90;99.90
13472;DHT22;6808;49.444;11.034;2023-05-10T00:05:04;16.90;99.90
13472;DHT22;6808;49.444;11.034;2023-05-10T00:07:30;16.90;99.90
13472;DHT22;6808;49.444;11.034;2023-05-10T00:09:56;16.90;99.90
13472;DHT22;6808;49.444;11.034;2023-05-10T00:12:21;16.90;99.90
13472;DHT22;6808;49.444;11.034;2023-05-10T00:14:47;17.00;99.90
13472;DHT22;6808;49.444;11.034;2023-05-10T00:17:13;17.00;99.90
13472;DHT22;6808;49.444;11.034;2023-05-10T00:19:39;17.00;99.90
13472;DHT22;6808;49.444;11.034;2023-05-10T00:22:05;16.90;99.90
13472;DHT22;6808;49.444;11.034;2023-05-10T00:24:30;16.90;99.90
13472;DHT22;6808;49.444;11.034;2023-05-10T00:26:56;16.90;99.90
13472;DHT22;6808;49.444;11.034;2023-05-10T00:29:21;16.80;99.90
13472;DHT22;6808;49.444;11.034;2023-05-10T00:31:47;16.80;99.90
13472;DHT22;6808;49.444;11.034;2023-05-10T00:34:12;17.20;99.90
13472;DHT22;6808;49.444;11.034;2023-05-10T00:36:38;16.70;99.90
13472;DHT22;6808;49.444;11.034;2023-05-10T00:39:03;16.70;99.90
13472;DHT22;6808;49.444;11.034;2023-05-10T00:41:30;16.70;99.90
13472;DHT22;6808;49.444;11.034;2023-05-10T00:43:57;16.70;99.90
13472;DHT22;6808;49.444;11.034;2023-05-10T00:46:23;16.70;99.90
13472;DHT22;6808;49.444;11.034;2023-05-10T00:48:49;16.70;99.90
13472;DHT22;6808;49.444;11.034;2023-05-10T00:51:15;16.60;99.90
13472;DHT22;6808;49.444;11.034;2023-05-10T00:53:40;17.30;99.90
13472;DHT22;6808;49.444;11.034;2023-05-10T00:56:06;16.60;99.90
13472;DHT22;6808;49.444;11.034;2023-05-10T00:58:32;16.50;99.90
13472;DHT22;6808;49.444;11.034;2023-05-10T01:00:58;16.50;99.90
13472;DHT22;6808;49.444;11.034;2023-05-10T01:03:25;16.50;99.90
13472;DHT22;6808;49.444;11.034;2023-05-10T01:05:51;16.40;99.90
13472;DHT22;6808;49.444;11.034;2023-05-10T01:08:16;16.40;99.90
13472;DHT22;6808;49.444;11.034;2023-05-10T01:10:43;16.40;99.90
13472;DHT22;6808;49.444;11.034;2023-05-10T01:13:09;16.40;99.90
13472;DHT22;6808;49.444;11.034;2023-05-10T01:15:35;16.40;99.90
13472;DHT22;6808;49.444;11.034;2023-05-10T01:18:02;16.40;99.90
13472;DHT22;6808;49.444;11.034;2023-05-10T01:20:36;16.40;99.90
13472;DHT22;6808;49.444;11.034;2023-05-10T01:23:20;16.30;99.90
13472;DHT22;6808;49.444;11.034;2023-05-10T01:26:14;16.30;99.90
13472;DHT22;6808;49.444;11.034;2023-05-10T01:28:50;16.30;99.90
13472;DHT22;6808;49.444;11.034;2023-05-10T01:34:20;16.30;99.90
13472;DHT22;6808;49.444;11.034;2023-05-10T01:36:56;16.20;99.90
13472;DHT22;6808;49.444;11.034;2023-05-10T01:39:32;16.20;99.90
13472;DHT22;6808;49.444;11.034;2023-05-10T01:42:09;16.20;99.90
13472;DHT22;6808;49.444;11.034;2023-05-10T01:47:12;16.10;99.90
13472;DHT22;6808;49.444;11.034;2023-05-10T01:49:49;16.10;99.90
13472;DHT22;6808;49.444;11.034;2023-05-10T01:52:18;16.10;99.90
13472;DHT22;6808;49.444;11.034;2023-05-10T01:54:49;16.10;99.90
13472;DHT22;6808;49.444;11.034;2023-05-10T01:57:16;16.20;99.90
13472;DHT22;6808;49.444;11.034;2023-05-10T01:59:43;16.10;99.90
13472;DHT22;6808;49.444;11.034;2023-05-10T02:02:11;16.00;99.90
13472;DHT22;6808;49.444;11.034;2023-05-10T02:04:39;16.00;99.90
13472;DHT22;6808;49.444;11.034;2023-05-10T02:07:06;16.00;99.90
13472;DHT22;6808;49.444;11.034;2023-05-10T02:09:33;16.00;99.90
13472;DHT22;6808;49.444;11.034;2023-05-10T02:12:01;16.00;99.90
13472;DHT22;6808;49.444;11.034;2023-05-10T02:14:30;16.00;99.90
13472;DHT22;6808;49.444;11.034;2023-05-10T02:16:58;16.00;99.90
13472;DHT22;6808;49.444;11.034;2023-05-10T02:19:26;16.00;99.90
13472;DHT22;6808;49.444;11.034;2023-05-10T02:21:54;16.00;99.90
13472;DHT22;6808;49.444;11.034;2023-05-10T02:24:21;15.90;99.90
13472;DHT22;6808;49.444;11.034;2023-05-10T02:26:49;16.00;99.90
13472;DHT22;6808;49.444;11.034;2023-05-10T02:29:16;16.00;99.90
13472;DHT22;6808;49.444;11.034;2023-05-10T02:31:43;16.00;99.90
13472;DHT22;6808;49.444;11.034;2023-05-10T02:34:10;16.00;99.90
13472;DHT22;6808;49.444;11.034;2023-05-10T02:36:38;15.90;99.90
13472;DHT22;6808;49.444;11.034;2023-05-10T02:39:03;15.90;99.90
13472;DHT22;6808;49.444;11.034;2023-05-10T02:41:32;15.90;99.90
13472;DHT22;6808;49.444;11.034;2023-05-10T02:43:59;15.90;99.90
13472;DHT22;6808;49.444;11.034;2023-05-10T02:46:26;15.90;99.90
13472;DHT22;6808;49.444;11.034;2023-05-10T02:48:52;15.90;99.90
13472;DHT22;6808;49.444;11.034;2023-05-10T02:51:19;15.80;99.90
13472;DHT22;6808;49.444;11.034;2023-05-10T02:53:46;15.80;99.90
13472;DHT22;6808;49.444;11.034;2023-05-10T02:56:28;15.80;99.90
13472;DHT22;6808;49.444;11.034;2023-05-10T02:58:55;15.70;99.90
13472;DHT22;6808;49.444;11.034;2023-05-10T03:01:20;15.60;99.90
13472;DHT22;6808;49.444;11.034;2023-05-10T03:03:46;15.60;99.90
13472;DHT22;6808;49.444;11.034;2023-05-10T03:06:11;15.50;99.90
13472;DHT22;6808;49.444;11.034;2023-05-10T03:08:37;14.30;99.90
13472;DHT22;6808;49.444;11.034;2023-05-10T03:13:59;15.50;99.90
13472;DHT22;6808;49.444;11.034;2023-05-10T03:16:35;15.40;99.90
13472;DHT22;6808;49.444;11.034;2023-05-10T03:19:07;15.40;99.90
13472;DHT22;6808;49.444;11.034;2023-05-10T03:21:37;15.40;99.90
13472;DHT22;6808;49.444;11.034;2023-05-10T03:24:07;15.40;99.90
13472;DHT22;6808;49.444;11.034;2023-05-10T03:26:33;15.30;99.90
13472;DHT22;6808;49.444;11.034;2023-05-10T03:28:59;15.30;99.90
13472;DHT22;6808;49.444;11.034;2023-05-10T03:31:25;15.20;99.90
13472;DHT22;6808;49.444;11.034;2023-05-10T03:33:52;15.20;99.90
13472;DHT22;6808;49.444;11.034;2023-05-10T03:36:18;15.10;99.90
13472;DHT22;6808;49.444;11.034;2023-05-10T03:38:44;15.10;99.90
13472;DHT22;6808;49.444;11.034;2023-05-10T03:41:10;15.10;99.90
13472;DHT22;6808;49.444;11.034;2023-05-10T03:43:36;15.00;99.90
13472;DHT22;6808;49.444;11.034;2023-05-10T03:46:03;15.00;99.90
13472;DHT22;6808;49.444;11.034;2023-05-10T03:48:28;15.00;99.90
13472;DHT22;6808;49.444;11.034;2023-05-10T03:50:54;15.00;99.90
13472;DHT22;6808;49.444;11.034;2023-05-10T03:53:20;15.00;99.90
13472;DHT22;6808;49.444;11.034;2023-05-10T03:55:45;15.00;99.90
13472;DHT22;6808;49.444;11.034;2023-05-10T03:58:11;15.00;99.90
13472;DHT22;6808;49.444;11.034;2023-05-10T04:00:37;15.00;99.90
13472;DHT22;6808;49.444;11.034;2023-05-10T04:03:02;15.00;99.90
13472;DHT22;6808;49.444;11.034;2023-05-10T04:05:28;15.00;99.90
13472;DHT22;6808;49.444;11.034;2023-05-10T04:07:54;14.90;99.90
13472;DHT22;6808;49.444;11.034;2023-05-10T04:10:19;14.80;99.90
13472;DHT22;6808;49.444;11.034;2023-05-10T04:12:46;14.80;99.90
13472;DHT22;6808;49.444;11.034;2023-05-10T04:15:12;14.90;99.90
13472;DHT22;6808;49.444;11.034;2023-05-10T04:17:37;14.90;99.90
13472;DHT22;6808;49.444;11.034;2023-05-10T04:20:03;14.90;99.90
13472;DHT22;6808;49.444;11.034;2023-05-10T04:22:30;14.80;99.90
13472;DHT22;6808;49.444;11.034;2023-05-10T04:24:55;14.90;99.90
13472;DHT22;6808;49.444;11.034;2023-05-10T04:27:21;14.90;99.90
13472;DHT22;6808;49.444;11.034;2023-05-10T04:29:46;14.90;99.90
13472;DHT22;6808;49.444;11.034;2023-05-10T04:32:12;14.90;99.90
13472;DHT22;6808;49.444;11.034;2023-05-10T04:34:37;14.80;99.90
13472;DHT22;6808;49.444;11.034;2023-05-10T04:37:03;14.80;99.90
13472;DHT22;6808;49.444;11.034;2023-05-10T04:39:28;13.70;99.90
13472;DHT22;6808;49.444;11.034;2023-05-10T04:41:54;14.60;99.90
13472;DHT22;6808;49.444;11.034;2023-05-10T04:44:20;14.60;99.90
13472;DHT22;6808;49.444;11.034;2023-05-10T04:46:45;14.50;99.90
13472;DHT22;6808;49.444;11.034;2023-05-10T04:49:11;14.50;99.90
13472;DHT22;6808;49.444;11.034;2023-05-10T04:51:37;14.50;99.90
13472;DHT22;6808;49.444;11.034;2023-05-10T04:54:02;14.90;99.90
13472;DHT22;6808;49.444;11.034;2023-05-10T04:56:28;14.50;99.90
13472;DHT22;6808;49.444;11.034;2023-05-10T04:58:53;14.40;99.90
13472;DHT22;6808;49.444;11.034;2023-05-10T05:01:19;14.40;99.90
13472;DHT22;6808;49.444;11.034;2023-05-10T05:03:45;14.40;99.90
13472;DHT22;6808;49.444;11.034;2023-05-10T05:06:11;14.40;99.90
13472;DHT22;6808;49.444;11.034;2023-05-10T05:08:36;14.30;99.90
13472;DHT22;6808;49.444;11.034;2023-05-10T05:11:02;14.30;99.90
13472;DHT22;6808;49.444;11.034;2023-05-10T05:13:28;14.30;99.90
13472;DHT22;6808;49.444;11.034;2023-05-10T05:15:53;14.30;99.90
13472;DHT22;6808;49.444;11.034;2023-05-10T05:18:19;14.60;99.90
13472;DHT22;6808;49.444;11.034;2023-05-10T05:20:45;14.30;99.90
13472;DHT22;6808;49.444;11.034;2023-05-10T05:23:10;14.30;99.90
13472;DHT22;6808;49.444;11.034;2023-05-10T05:25:36;14.30;99.90
13472;DHT22;6808;49.444;11.034;2023-05-10T05:28:02;14.20;99.90
13472;DHT22;6808;49.444;11.034;2023-05-10T05:30:27;14.30;99.90
13472;DHT22;6808;49.444;11.034;2023-05-10T05:32:53;14.30;99.90
13472;DHT22;6808;49.444;11.034;2023-05-10T05:35:18;14.40;99.90
13472;DHT22;6808;49.444;11.034;2023-05-10T05:37:44;14.30;99.90
13472;DHT22;6808;49.444;11.034;2023-05-10T05:40:12;14.30;99.90
13472;DHT22;6808;49.444;11.034;2023-05-10T05:42:38;14.30;99.90
13472;DHT22;6808;49.444;11.034;2023-05-10T05:45:04;14.40;99.90
13472;DHT22;6808;49.444;11.034;2023-05-10T05:47:30;14.40;99.90
13472;DHT22;6808;49.444;11.034;2023-05-10T05:49:56;14.50;99.90
13472;DHT22;6808;49.444;11.034;2023-05-10T05:52:21;14.40;99.90
13472;DHT22;6808;49.444;11.034;2023-05-10T05:54:47;14.40;99.90
13472;DHT22;6808;49.444;11.034;2023-05-10T05:57:12;14.40;99.90
13472;DHT22;6808;49.444;11.034;2023-05-10T05:59:39;14.40;99.90
13472;DHT22;6808;49.444;11.034;2023-05-10T06:02:09;14.40;99.90
13472;DHT22;6808;49.444;11.034;2023-05-10T06:04:35;14.50;99.90
13472;DHT22;6808;49.444;11.034;2023-05-10T06:07:00;14.40;99.90
13472;DHT22;6808;49.444;11.034;2023-05-10T06:09:26;14.40;99.90
13472;DHT22;6808;49.444;11.034;2023-05-10T06:11:51;14.50;99.90
13472;DHT22;6808;49.444;11.034;2023-05-10T06:14:17;14.40;99.90
13472;DHT22;6808;49.444;11.034;2023-05-10T06:16:42;14.40;99.90
13472;DHT22;6808;49.444;11.034;2023-05-10T06:19:08;14.30;99.90
13472;DHT22;6808;49.444;11.034;2023-05-10T06:21:34;14.40;99.90
13472;DHT22;6808;49.444;11.034;2023-05-10T06:23:59;14.30;99.90
13472;DHT22;6808;49.444;11.034;2023-05-10T06:26:25;14.40;99.90
13472;DHT22;6808;49.444;11.034;2023-05-10T06:28:50;14.50;99.90
13472;DHT22;6808;49.444;11.034;2023-05-10T06:31:16;14.50;99.90
13472;DHT22;6808;49.444;11.034;2023-05-10T06:33:41;14.60;99.90
13472;DHT22;6808;49.444;11.034;2023-05-10T06:36:07;14.60;99.90
13472;DHT22;6808;49.444;11.034;2023-05-10T06:38:32;14.60;99.90
13472;DHT22;6808;49.444;11.034;2023-05-10T06:40:58;14.70;99.90
13472;DHT22;6808;49.444;11.034;2023-05-10T06:43:24;14.60;99.90
13472;DHT22;6808;49.444;11.034;2023-05-10T06:45:51;14.70;99.90
13472;DHT22;6808;49.444;11.034;2023-05-10T06:48:17;14.70;99.90
13472;DHT22;6808;49.444;11.034;2023-05-10T06:50:42;14.80;99.90
13472;DHT22;6808;49.444;11.034;2023-05-10T06:53:09;14.90;99.90
13472;DHT22;6808;49.444;11.034;2023-05-10T06:55:34;14.90;99.90
13472;DHT22;6808;49.444;11.034;2023-05-10T06:58:00;14.90;99.90
13472;DHT22;6808;49.444;11.034;2023-05-10T07:00:26;15.00;99.90
13472;DHT22;6808;49.444;11.034;2023-05-10T07:02:52;15.10;99.90
13472;DHT22;6808;49.444;11.034;2023-05-10T07:05:17;15.10;99.90
13472;DHT22;6808;49.444;11.034;2023-05-10T07:07:43;15.10;99.90
13472;DHT22;6808;49.444;11.034;2023-05-10T07:10:09;15.10;99.90
13472;DHT22;6808;49.444;11.034;2023-05-10T07:12:35;15.20;99.90
13472;DHT22;6808;49.444;11.034;2023-05-10T07:15:00;15.20;99.90
13472;DHT22;6808;49.444;11.034;2023-05-10T07:17:26;15.20;99.90
13472;DHT22;6808;49.444;11.034;2023-05-10T07:19:51;15.20;99.90
13472;DHT22;6808;49.444;11.034;2023-05-10T07:22:17;15.10;99.90
13472;DHT22;6808;49.444;11.034;2023-05-10T07:24:43;15.10;99.90
13472;DHT22;6808;49.444;11.034;2023-05-10T07:27:09;15.10;99.90
13472;DHT22;6808;49.444;11.034;2023-05-10T07:29:35;15.10;99.90
13472;DHT22;6808;49.444;11.034;2023-05-10T07:32:01;15.10;99.90
13472;DHT22;6808;49.444;11.034;2023-05-10T07:34:27;15.00;99.90
13472;DHT22;6808;49.444;11.034;2023-05-10T07:36:54;15.10;99.90
13472;DHT22;6808;49.444;11.034;2023-05-10T07:39:20;15.00;99.90
13472;DHT22;6808;49.444;11.034;2023-05-10T07:41:48;15.00;99.90
13472;DHT22;6808;49.444;11.034;2023-05-10T07:44:13;15.10;99.90
13472;DHT22;6808;49.444;11.034;2023-05-10T07:46:39;15.20;99.90
13472;DHT22;6808;49.444;11.034;2023-05-10T07:49:05;15.10;99.90
13472;DHT22;6808;49.444;11.034;2023-05-10T07:51:30;15.40;99.90
13472;DHT22;6808;49.444;11.034;2023-05-10T07:53:56;15.20;99.90
13472;DHT22;6808;49.444;11.034;2023-05-10T07:56:27;15.10;99.90
13472;DHT22;6808;49.444;11.034;2023-05-10T07:58:59;15.10;99.90
13472;DHT22;6808;49.444;11.034;2023-05-10T08:01:25;15.10;99.90
13472;DHT22;6808;49.444;11.034;2023-05-10T08:03:50;15.10;99.90
13472;DHT22;6808;49.444;11.034;2023-05-10T08:06:18;15.20;99.90
13472;DHT22;6808;49.444;11.034;2023-05-10T08:08:45;15.30;99.90
13472;DHT22;6808;49.444;11.034;2023-05-10T08:11:15;15.30;99.90
13472;DHT22;6808;49.444;11.034;2023-05-10T08:13:40;15.40;99.90
13472;DHT22;6808;49.444;11.034;2023-05-10T08:16:06;15.40;99.90
13472;DHT22;6808;49.444;11.034;2023-05-10T08:18:32;15.50;99.90
13472;DHT22;6808;49.444;11.034;2023-05-10T08:20:58;15.50;99.90
13472;DHT22;6808;49.444;11.034;2023-05-10T08:23:23;15.60;99.90
13472;DHT22;6808;49.444;11.034;2023-05-10T08:25:49;16.20;99.90
13472;DHT22;6808;49.444;11.034;2023-05-10T08:28:14;15.70;99.90
13472;DHT22;6808;49.444;11.034;2023-05-10T08:30:40;15.70;99.90
13472;DHT22;6808;49.444;11.034;2023-05-10T08:33:05;15.80;99.90
13472;DHT22;6808;49.444;11.034;2023-05-10T08:35:31;15.80;99.90
13472;DHT22;6808;49.444;11.034;2023-05-10T08:37:58;15.90;99.90
13472;DHT22;6808;49.444;11.034;2023-05-10T08:40:24;16.00;99.90
13472;DHT22;6808;49.444;11.034;2023-05-10T08:42:55;16.20;99.90
13472;DHT22;6808;49.444;11.034;2023-05-10T08:45:23;16.30;99.90
13472;DHT22;6808;49.444;11.034;2023-05-10T08:47:49;16.30;99.90
13472;DHT22;6808;49.444;11.034;2023-05-10T08:50:17;16.30;99.90
13472;DHT22;6808;49.444;11.034;2023-05-10T08:52:46;16.30;99.90
13472;DHT22;6808;49.444;11.034;2023-05-10T08:55:13;16.30;99.90
13472;DHT22;6808;49.444;11.034;2023-05-10T08:57:39;16.20;99.90
13472;DHT22;6808;49.444;11.034;2023-05-10T09:00:05;16.10;99.90
13472;DHT22;6808;49.444;11.034;2023-05-10T09:02:31;15.90;99.90
13472;DHT22;6808;49.444;11.034;2023-05-10T09:04:57;15.80;99.90
13472;DHT22;6808;49.444;11.034;2023-05-10T09:07:22;15.60;99.90
13472;DHT22;6808;49.444;11.034;2023-05-10T09:09:48;15.40;99.90
13472;DHT22;6808;49.444;11.034;2023-05-10T09:12:14;15.20;99.90
13472;DHT22;6808;49.444;11.034;2023-05-10T09:14:42;15.10;99.90
13472;DHT22;6808;49.444;11.034;2023-05-10T09:17:09;15.20;99.90
13472;DHT22;6808;49.444;11.034;2023-05-10T09:19:35;15.20;99.90
13472;DHT22;6808;49.444;11.034;2023-05-10T09:22:01;15.30;99.90
13472;DHT22;6808;49.444;11.034;2023-05-10T09:24:29;15.40;99.90
13472;DHT22;6808;49.444;11.034;2023-05-10T09:26:56;16.00;99.90
13472;DHT22;6808;49.444;11.034;2023-05-10T09:29:22;15.50;99.90
13472;DHT22;6808;49.444;11.034;2023-05-10T09:31:50;15.60;99.90
13472;DHT22;6808;49.444;11.034;2023-05-10T09:34:32;15.90;99.90
13472;DHT22;6808;49.444;11.034;2023-05-10T09:37:01;15.90;99.90
13472;DHT22;6808;49.444;11.034;2023-05-10T09:39:37;16.00;99.90
13472;DHT22;6808;49.444;11.034;2023-05-10T09:42:05;16.10;99.90
13472;DHT22;6808;49.444;11.034;2023-05-10T09:44:35;16.50;99.90
13472;DHT22;6808;49.444;11.034;2023-05-10T09:47:03;16.20;99.90
13472;DHT22;6808;49.444;11.034;2023-05-10T09:49:29;16.40;99.90
13472;DHT22;6808;49.444;11.034;2023-05-10T09:52:06;16.20;99.90
13472;DHT22;6808;49.444;11.034;2023-05-10T09:54:32;16.20;99.90
13472;DHT22;6808;49.444;11.034;2023-05-10T09:56:59;16.40;99.90
13472;DHT22;6808;49.444;11.034;2023-05-10T09:59:25;16.50;99.90
13472;DHT22;6808;49.444;11.034;2023-05-10T10:01:59;16.60;99.90
13472;DHT22;6808;49.444;11.034;2023-05-10T10:04:25;16.80;99.90
13472;DHT22;6808;49.444;11.034;2023-05-10T10:07:01;16.90;99.90
13472;DHT22;6808;49.444;11.034;2023-05-10T10:09:28;16.90;99.90
13472;DHT22;6808;49.444;11.034;2023-05-10T10:11:54;17.00;99.90
13472;DHT22;6808;49.444;11.034;2023-05-10T10:14:22;17.10;99.90
13472;DHT22;6808;49.444;11.034;2023-05-10T10:16:49;17.10;99.90
13472;DHT22;6808;49.444;11.034;2023-05-10T10:19:15;17.10;99.90
13472;DHT22;6808;49.444;11.034;2023-05-10T10:21:40;17.20;99.90
13472;DHT22;6808;49.444;11.034;2023-05-10T10:24:06;17.30;99.90
13472;DHT22;6808;49.444;11.034;2023-05-10T10:26:36;17.20;99.90
13472;DHT22;6808;49.444;11.034;2023-05-10T10:29:16;17.30;99.90
13472;DHT22;6808;49.444;11.034;2023-05-10T10:32:06;17.40;99.90
13472;DHT22;6808;49.444;11.034;2023-05-10T10:34:34;17.50;99.90
13472;DHT22;6808;49.444;11.034;2023-05-10T10:37:04;17.60;99.90
13472;DHT22;6808;49.444;11.034;2023-05-10T10:39:31;17.60;99.90
13472;DHT22;6808;49.444;11.034;2023-05-10T10:41:57;17.50;99.90
13472;DHT22;6808;49.444;11.034;2023-05-10T10:47:02;17.40;99.90
13472;DHT22;6808;49.444;11.034;2023-05-10T10:49:30;17.10;99.90
13472;DHT22;6808;49.444;11.034;2023-05-10T10:52:20;17.00;99.90
13472;DHT22;6808;49.444;11.034;2023-05-10T10:54:52;16.80;99.90
13472;DHT22;6808;49.444;11.034;2023-05-10T10:57:19;16.60;99.90
13472;DHT22;6808;49.444;11.034;2023-05-10T10:59:47;16.60;99.90
13472;DHT22;6808;49.444;11.034;2023-05-10T11:07:59;16.40;99.90
13472;DHT22;6808;49.444;11.034;2023-05-10T11:10:26;16.40;99.90
13472;DHT22;6808;49.444;11.034;2023-05-10T11:13:05;16.40;99.90
13472;DHT22;6808;49.444;11.034;2023-05-10T11:15:35;16.50;99.90
13472;DHT22;6808;49.444;11.034;2023-05-10T11:18:39;16.50;99.90
13472;DHT22;6808;49.444;11.034;2023-05-10T11:21:06;16.60;99.90
13472;DHT22;6808;49.444;11.034;2023-05-10T11:23:57;16.80;99.90
13472;DHT22;6808;49.444;11.034;2023-05-10T11:26:24;17.00;99.90
13472;DHT22;6808;49.444;11.034;2023-05-10T11:28:53;17.00;99.90
13472;DHT22;6808;49.444;11.034;2023-05-10T11:31:23;17.20;99.90
13472;DHT22;6808;49.444;11.034;2023-05-10T11:33:50;17.30;99.90
13472;DHT22;6808;49.444;11.034;2023-05-10T11:36:18;17.40;99.90
13472;DHT22;6808;49.444;11.034;2023-05-10T11:38:44;17.40;99.90
13472;DHT22;6808;49.444;11.034;2023-05-10T11:41:10;17.30;99.90
13472;DHT22;6808;49.444;11.034;2023-05-10T11:43:38;17.40;99.90
13472;DHT22;6808;49.444;11.034;2023-05-10T11:46:09;18.20;99.90
13472;DHT22;6808;49.444;11.034;2023-05-10T11:48:36;17.40;99.90
13472;DHT22;6808;49.444;11.034;2023-05-10T11:51:02;17.30;99.90
13472;DHT22;6808;49.444;11.034;2023-05-10T11:53:32;17.20;99.90
13472;DHT22;6808;49.444;11.034;2023-05-10T11:56:05;17.20;99.90
13472;DHT22;6808;49.444;11.034;2023-05-10T11:58:32;17.10;99.90
13472;DHT22;6808;49.444;11.034;2023-05-10T12:00:59;17.10;99.90
13472;DHT22;6808;49.444;11.034;2023-05-10T12:03:25;17.10;99.90
13472;DHT22;6808;49.444;11.034;2023-05-10T12:05:51;17.00;99.90
13472;DHT22;6808;49.444;11.034;2023-05-10T12:08:24;17.00;99.90
13472;DHT22;6808;49.444;11.034;2023-05-10T12:10:50;17.00;99.90
13472;DHT22;6808;49.444;11.034;2023-05-10T12:13:17;17.00;99.90
13472;DHT22;6808;49.444;11.034;2023-05-10T12:15:44;17.00;99.90
13472;DHT22;6808;49.444;11.034;2023-05-10T12:18:11;17.00;99.90
13472;DHT22;6808;49.444;11.034;2023-05-10T12:20:37;17.00;99.90
13472;DHT22;6808;49.444;11.034;2023-05-10T12:23:03;17.00;99.90
13472;DHT22;6808;49.444;11.034;2023-05-10T12:25:33;17.00;99.90
13472;DHT22;6808;49.444;11.034;2023-05-10T12:28:02;17.00;99.90
13472;DHT22;6808;49.444;11.034;2023-05-10T12:30:30;17.10;99.90
13472;DHT22;6808;49.444;11.034;2023-05-10T12:33:10;17.10;99.90
13472;DHT22;6808;49.444;11.034;2023-05-10T12:35:50;17.20;99.90
13472;DHT22;6808;49.444;11.034;2023-05-10T12:40:51;17.40;99.90
13472;DHT22;6808;49.444;11.034;2023-05-10T12:43:16;17.40;99.90
13472;DHT22;6808;49.444;11.034;2023-05-10T12:45:42;17.40;99.90
13472;DHT22;6808;49.444;11.034;2023-05-10T12:48:07;17.40;99.90
13472;DHT22;6808;49.444;11.034;2023-05-10T12:50:33;17.40;99.90
13472;DHT22;6808;49.444;11.034;2023-05-10T12:52:59;17.40;99.90
13472;DHT22;6808;49.444;11.034;2023-05-10T12:55:24;17.30;99.90
13472;DHT22;6808;49.444;11.034;2023-05-10T12:57:50;17.30;99.90
13472;DHT22;6808;49.444;11.034;2023-05-10T13:00:16;17.30;99.90
13472;DHT22;6808;49.444;11.034;2023-05-10T13:02:41;17.30;99.90
13472;DHT22;6808;49.444;11.034;2023-05-10T13:05:07;17.30;99.90
13472;DHT22;6808;49.444;11.034;2023-05-10T13:07:33;17.30;99.90
13472;DHT22;6808;49.444;11.034;2023-05-10T13:09:58;17.50;99.90
13472;DHT22;6808;49.444;11.034;2023-05-10T13:12:24;17.90;99.90
13472;DHT22;6808;49.444;11.034;2023-05-10T13:14:49;17.40;99.90
13472;DHT22;6808;49.444;11.034;2023-05-10T13:17:15;17.50;99.90
13472;DHT22;6808;49.444;11.034;2023-05-10T13:19:40;18.10;99.90
13472;DHT22;6808;49.444;11.034;2023-05-10T13:22:06;18.30;99.90
13472;DHT22;6808;49.444;11.034;2023-05-10T13:24:31;17.50;99.90
13472;DHT22;6808;49.444;11.034;2023-05-10T13:26:57;17.20;99.90
13472;DHT22;6808;49.444;11.034;2023-05-10T13:29:23;17.60;99.90
13472;DHT22;6808;49.444;11.034;2023-05-10T13:31:48;17.70;99.90
13472;DHT22;6808;49.444;11.034;2023-05-10T13:34:14;17.70;99.90
13472;DHT22;6808;49.444;11.034;2023-05-10T13:36:40;17.70;99.90
13472;DHT22;6808;49.444;11.034;2023-05-10T13:39:05;17.70;99.90
13472;DHT22;6808;49.444;11.034;2023-05-10T13:41:31;17.80;99.90
13472;DHT22;6808;49.444;11.034;2023-05-10T13:43:57;17.80;99.90
13472;DHT22;6808;49.444;11.034;2023-05-10T13:46:22;17.90;99.90
13472;DHT22;6808;49.444;11.034;2023-05-10T13:48:48;17.90;99.90
13472;DHT22;6808;49.444;11.034;2023-05-10T13:51:13;17.90;99.90
13472;DHT22;6808;49.444;11.034;2023-05-10T13:53:39;18.50;99.70
13472;DHT22;6808;49.444;11.034;2023-05-10T13:56:05;17.90;97.10
13472;DHT22;6808;49.444;11.034;2023-05-10T13:58:30;17.90;97.60
13472;DHT22;6808;49.444;11.034;2023-05-10T14:00:56;18.10;98.00
13472;DHT22;6808;49.444;11.034;2023-05-10T14:03:22;17.90;98.30
13472;DHT22;6808;49.444;11.034;2023-05-10T14:05:47;17.90;98.70
13472;DHT22;6808;49.444;11.034;2023-05-10T14:08:13;18.00;99.10
13472;DHT22;6808;49.444;11.034;2023-05-10T14:10:39;18.00;98.90
13472;DHT22;6808;49.444;11.034;2023-05-10T14:13:05;18.00;99.10
13472;DHT22;6808;49.444;11.034;2023-05-10T14:15:31;18.00;99.20
13472;DHT22;6808;49.444;11.034;2023-05-10T14:17:57;18.00;98.80
13472;DHT22;6808;49.444;11.034;2023-05-10T14:20:22;17.90;98.70
13472;DHT22;6808;49.444;11.034;2023-05-10T14:22:48;17.90;99.00
13472;DHT22;6808;49.444;11.034;2023-05-10T14:25:14;17.80;99.20
13472;DHT22;6808;49.444;11.034;2023-05-10T14:27:39;17.80;99.10
13472;DHT22;6808;49.444;11.034;2023-05-10T14:30:06;17.80;99.60
13472;DHT22;6808;49.444;11.034;2023-05-10T14:32:31;17.80;99.30
13472;DHT22;6808;49.444;11.034;2023-05-10T14:34:57;17.80;99.00
13472;DHT22;6808;49.444;11.034;2023-05-10T14:37:23;17.80;99.90
13472;DHT22;6808;49.444;11.034;2023-05-10T14:39:48;17.90;99.90
13472;DHT22;6808;49.444;11.034;2023-05-10T14:42:14;17.80;99.90
13472;DHT22;6808;49.444;11.034;2023-05-10T14:44:39;17.90;99.90
13472;DHT22;6808;49.444;11.034;2023-05-10T14:47:05;17.90;99.90
13472;DHT22;6808;49.444;11.034;2023-05-10T14:49:31;17.90;99.90
13472;DHT22;6808;49.444;11.034;2023-05-10T14:51:57;17.90;99.90
13472;DHT22;6808;49.444;11.034;2023-05-10T14:54:22;17.80;99.90
13472;DHT22;6808;49.444;11.034;2023-05-10T14:56:48;17.80;99.90
13472;DHT22;6808;49.444;11.034;2023-05-10T14:59:15;17.70;99.90
13472;DHT22;6808;49.444;11.034;2023-05-10T15:01:41;17.80;99.90
13472;DHT22;6808;49.444;11.034;2023-05-10T15:04:07;17.90;99.90
13472;DHT22;6808;49.444;11.034;2023-05-10T15:06:34;17.80;99.90
13472;DHT22;6808;49.444;11.034;2023-05-10T15:09:00;17.60;99.90
13472;DHT22;6808;49.444;11.034;2023-05-10T15:11:26;17.40;99.90
13472;DHT22;6808;49.444;11.034;2023-05-10T15:13:52;17.30;99.90
13472;DHT22;6808;49.444;11.034;2023-05-10T15:16:17;17.00;99.90
13472;DHT22;6808;49.444;11.034;2023-05-10T15:18:43;16.80;99.90
13472;DHT22;6808;49.444;11.034;2023-05-10T15:21:09;16.80;99.90
13472;DHT22;6808;49.444;11.034;2023-05-10T15:23:35;16.80;99.90
13472;DHT22;6808;49.444;11.034;2023-05-10T15:26:01;16.70;99.60
13472;DHT22;6808;49.444;11.034;2023-05-10T15:28:27;16.60;98.90
13472;DHT22;6808;49.444;11.034;2023-05-10T15:30:52;16.60;98.80
13472;DHT22;6808;49.444;11.034;2023-05-10T15:33:18;16.60;98.40
13472;DHT22;6808;49.444;11.034;2023-05-10T15:35:43;16.70;99.30
13472;DHT22;6808;49.444;11.034;2023-05-10T15:38:09;16.50;97.50
13472;DHT22;6808;49.444;11.034;2023-05-10T15:40:35;16.60;97.70
13472;DHT22;6808;49.444;11.034;2023-05-10T15:43:01;16.50;97.80
13472;DHT22;6808;49.444;11.034;2023-05-10T15:45:26;16.60;98.20
13472;DHT22;6808;49.444;11.034;2023-05-10T15:47:52;16.50;97.70